sensor_id;sensor_type;location;lat;lon;timestamp;temperature;humidity
40816;DHT22;26535;48.788;9.214;2024-02-16T00:00:17;10.20;99.90
40816;DHT22;26535;48.788;9.214;2024-02-16T00:02:44;10.20;99.90
40816;DHT22;26535;48.788;9.214;2024-02-16T00:05:11;10.20;99.90
40816;DHT22;26535;48.788;9.214;2024-02-16T00:07:40;10.20;99.90
40816;DHT22;26535;48.788;9.214;2024-02-16T00:10:07;10.20;99.90
40816;DHT22;26535;48.788;9.214;2024-02-16T00:12:34;10.20;99.90
40816;DHT22;26535;48.788;9.214;2024-02-16T00:15:01;10.20;99.90
40816;DHT22;26535;48.788;9.214;2024-02-16T06:02:02;10.20;99.90
40816;DHT22;26535;48.788;9.214;2024-02-16T06:04:28;10.20;99.90
40816;DHT22;26535;48.788;9.214;2024-02-16T06:06:54;10.20;99.90
40816;DHT22;26535;48.788;9.214;2024-02-16T06:09:20;10.20;99.90
40816;DHT22;26535;48.788;9.214;2024-02-16T06:11:45;10.10;99.90
40816;DHT22;26535;48.788;9.214;2024-02-16T06:14:11;10.10;99.90
40816;DHT22;26535;48.788;9.214;2024-02-16T06:16:36;10.10;99.90
40816;DHT22;26535;48.788;9.214;2024-02-16T06:19:02;10.10;99.90
40816;DHT22;26535;48.788;9.214;2024-02-16T06:21:28;10.10;99.90
40816;DHT22;26535;48.788;9.214;2024-02-16T06:23:54;10.10;99.90
40816;DHT22;26535;48.788;9.214;2024-02-16T06:26:19;10.10;99.90
40816;DHT22;26535;48.788;9.214;2024-02-16T06:28:45;10.10;99.90
40816;DHT22;26535;48.788;9.214;2024-02-16T06:31:12;10.10;99.90
40816;DHT22;26535;48.788;9.214;2024-02-16T06:33:39;10.00;99.90
40816;DHT22;26535;48.788;9.214;2024-02-16T06:36:05;10.00;99.90
40816;DHT22;26535;48.788;9.214;2024-02-16T06:38:32;10.00;99.90
40816;DHT22;26535;48.788;9.214;2024-02-16T06:40:58;10.00;99.90
40816;DHT22;26535;48.788;9.214;2024-02-16T06:43:23;10.10;99.90
40816;DHT22;26535;48.788;9.214;2024-02-16T06:45:49;10.10;99.90
40816;DHT22;26535;48.788;9.214;2024-02-16T06:48:15;10.00;99.90
40816;DHT22;26535;48.788;9.214;2024-02-16T06:50:40;10.00;99.90
40816;DHT22;26535;48.788;9.214;2024-02-16T06:53:06;10.00;99.90
40816;DHT22;26535;48.788;9.214;2024-02-16T06:55:32;9.90;99.90
40816;DHT22;26535;48.788;9.214;2024-02-16T06:57:57;9.90;99.90
40816;DHT22;26535;48.788;9.214;2024-02-16T07:00:23;9.90;99.90
40816;DHT22;26535;48.788;9.214;2024-02-16T07:02:48;9.90;99.90
40816;DHT22;26535;48.788;9.214;2024-02-16T07:05:14;10.00;99.90
40816;DHT22;26535;48.788;9.214;2024-02-16T07:07:41;10.00;99.90
40816;DHT22;26535;48.788;9.214;2024-02-16T07:10:07;10.00;99.90
40816;DHT22;26535;48.788;9.214;2024-02-16T07:12:41;10.00;99.90
40816;DHT22;26535;48.788;9.214;2024-02-16T07:15:07;10.10;99.90
40816;DHT22;26535;48.788;9.214;2024-02-16T07:17:34;10.20;99.90
40816;DHT22;26535;48.788;9.214;2024-02-16T07:20:00;10.20;99.90
40816;DHT22;26535;48.788;9.214;2024-02-16T07:22:30;10.30;99.90
40816;DHT22;26535;48.788;9.214;2024-02-16T07:24:56;10.40;99.90
40816;DHT22;26535;48.788;9.214;2024-02-16T07:27:21;10.40;99.90
40816;DHT22;26535;48.788;9.214;2024-02-16T07:29:47;10.40;99.90
40816;DHT22;26535;48.788;9.214;2024-02-16T07:32:13;10.40;99.90
40816;DHT22;26535;48.788;9.214;2024-02-16T07:34:38;10.50;99.90
40816;DHT22;26535;48.788;9.214;2024-02-16T07:37:04;10.40;99.90
40816;DHT22;26535;48.788;9.214;2024-02-16T07:39:30;10.40;99.90
40816;DHT22;26535;48.788;9.214;2024-02-16T07:41:56;10.30;99.90
40816;DHT22;26535;48.788;9.214;2024-02-16T07:44:21;10.30;99.90
40816;DHT22;26535;48.788;9.214;2024-02-16T07:46:47;10.30;99.90
40816;DHT22;26535;48.788;9.214;2024-02-16T07:49:15;10.20;99.90
40816;DHT22;26535;48.788;9.214;2024-02-16T07:51:40;10.20;99.90
40816;DHT22;26535;48.788;9.214;2024-02-16T07:54:07;10.20;99.90
40816;DHT22;26535;48.788;9.214;2024-02-16T07:56:33;10.20;99.90
40816;DHT22;26535;48.788;9.214;2024-02-16T07:58:59;10.20;99.90
40816;DHT22;26535;48.788;9.214;2024-02-16T08:01:25;10.30;99.90
40816;DHT22;26535;48.788;9.214;2024-02-16T08:03:52;10.30;99.90
40816;DHT22;26535;48.788;9.214;2024-02-16T08:06:18;10.20;99.90
40816;DHT22;26535;48.788;9.214;2024-02-16T08:08:49;10.30;99.90
40816;DHT22;26535;48.788;9.214;2024-02-16T08:11:15;10.30;99.90
40816;DHT22;26535;48.788;9.214;2024-02-16T08:13:40;10.50;99.90
40816;DHT22;26535;48.788;9.214;2024-02-16T08:16:06;10.50;99.90
40816;DHT22;26535;48.788;9.214;2024-02-16T08:18:35;10.70;99.90
40816;DHT22;26535;48.788;9.214;2024-02-16T08:21:01;10.90;99.90
40816;DHT22;26535;48.788;9.214;2024-02-16T08:23:26;11.10;99.90
40816;DHT22;26535;48.788;9.214;2024-02-16T08:25:52;11.20;99.90
40816;DHT22;26535;48.788;9.214;2024-02-16T08:28:18;11.40;99.50
40816;DHT22;26535;48.788;9.214;2024-02-16T08:30:44;11.70;99.00
40816;DHT22;26535;48.788;9.214;2024-02-16T08:33:13;11.80;98.40
40816;DHT22;26535;48.788;9.214;2024-02-16T08:35:39;12.00;98.20
40816;DHT22;26535;48.788;9.214;2024-02-16T08:38:04;12.20;97.80
40816;DHT22;26535;48.788;9.214;2024-02-16T08:40:30;12.40;97.50
40816;DHT22;26535;48.788;9.214;2024-02-16T08:42:59;12.60;97.10
40816;DHT22;26535;48.788;9.214;2024-02-16T08:45:27;12.70;96.70
40816;DHT22;26535;48.788;9.214;2024-02-16T08:47:53;12.80;96.60
40816;DHT22;26535;48.788;9.214;2024-02-16T08:50:19;13.00;96.30
40816;DHT22;26535;48.788;9.214;2024-02-16T08:52:45;13.10;96.00
40816;DHT22;26535;48.788;9.214;2024-02-16T08:55:20;13.20;95.70
40816;DHT22;26535;48.788;9.214;2024-02-16T08:57:45;13.20;95.20
40816;DHT22;26535;48.788;9.214;2024-02-16T09:00:11;13.30;95.00
40816;DHT22;26535;48.788;9.214;2024-02-16T09:02:38;13.50;95.00
40816;DHT22;26535;48.788;9.214;2024-02-16T09:05:04;13.60;94.60
40816;DHT22;26535;48.788;9.214;2024-02-16T09:07:30;13.70;94.10
40816;DHT22;26535;48.788;9.214;2024-02-16T09:09:56;13.70;94.10
40816;DHT22;26535;48.788;9.214;2024-02-16T09:12:22;13.90;94.00
40816;DHT22;26535;48.788;9.214;2024-02-16T09:14:48;14.00;93.90
40816;DHT22;26535;48.788;9.214;2024-02-16T09:17:14;14.30;93.50
40816;DHT22;26535;48.788;9.214;2024-02-16T09:19:39;14.40;92.90
40816;DHT22;26535;48.788;9.214;2024-02-16T09:22:05;14.60;92.80
40816;DHT22;26535;48.788;9.214;2024-02-16T09:24:32;14.70;92.40
40816;DHT22;26535;48.788;9.214;2024-02-16T09:26:58;14.80;92.30
40816;DHT22;26535;48.788;9.214;2024-02-16T09:29:29;15.00;91.90
40816;DHT22;26535;48.788;9.214;2024-02-16T09:31:55;15.00;92.00
40816;DHT22;26535;48.788;9.214;2024-02-16T09:34:20;15.10;91.90
40816;DHT22;26535;48.788;9.214;2024-02-16T09:36:46;15.10;91.80
40816;DHT22;26535;48.788;9.214;2024-02-16T09:39:12;15.20;91.50
40816;DHT22;26535;48.788;9.214;2024-02-16T09:41:41;15.20;91.50
40816;DHT22;26535;48.788;9.214;2024-02-16T09:44:07;15.30;91.40
40816;DHT22;26535;48.788;9.214;2024-02-16T09:46:35;15.40;91.30
40816;DHT22;26535;48.788;9.214;2024-02-16T09:49:02;15.70;91.10
40816;DHT22;26535;48.788;9.214;2024-02-16T09:51:29;16.00;90.80
40816;DHT22;26535;48.788;9.214;2024-02-16T09:53:57;16.30;90.30
40816;DHT22;26535;48.788;9.214;2024-02-16T09:56:25;16.50;89.10
40816;DHT22;26535;48.788;9.214;2024-02-16T09:58:51;16.60;88.30
40816;DHT22;26535;48.788;9.214;2024-02-16T10:01:23;16.80;87.80
40816;DHT22;26535;48.788;9.214;2024-02-16T10:03:50;17.10;87.70
40816;DHT22;26535;48.788;9.214;2024-02-16T10:06:17;17.20;86.50
40816;DHT22;26535;48.788;9.214;2024-02-16T10:08:53;17.40;85.80
40816;DHT22;26535;48.788;9.214;2024-02-16T10:11:25;17.70;85.50
40816;DHT22;26535;48.788;9.214;2024-02-16T10:14:00;18.00;84.80
40816;DHT22;26535;48.788;9.214;2024-02-16T10:16:27;18.10;84.10
40816;DHT22;26535;48.788;9.214;2024-02-16T10:18:56;18.00;83.70
40816;DHT22;26535;48.788;9.214;2024-02-16T10:21:27;17.90;83.70
40816;DHT22;26535;48.788;9.214;2024-02-16T10:24:07;17.90;84.00
40816;DHT22;26535;48.788;9.214;2024-02-16T10:26:37;18.00;83.60
40816;DHT22;26535;48.788;9.214;2024-02-16T10:29:05;18.10;82.90
40816;DHT22;26535;48.788;9.214;2024-02-16T10:31:32;18.10;82.70
40816;DHT22;26535;48.788;9.214;2024-02-16T10:34:03;18.20;82.10
40816;DHT22;26535;48.788;9.214;2024-02-16T10:36:34;18.30;81.60
40816;DHT22;26535;48.788;9.214;2024-02-16T10:39:02;18.40;81.90
40816;DHT22;26535;48.788;9.214;2024-02-16T10:41:38;18.60;81.00
40816;DHT22;26535;48.788;9.214;2024-02-16T10:44:05;18.60;80.60
40816;DHT22;26535;48.788;9.214;2024-02-16T10:46:32;18.70;80.50
40816;DHT22;26535;48.788;9.214;2024-02-16T10:48:58;18.60;80.30
40816;DHT22;26535;48.788;9.214;2024-02-16T10:51:34;18.70;80.10
40816;DHT22;26535;48.788;9.214;2024-02-16T10:54:01;18.60;80.40
40816;DHT22;26535;48.788;9.214;2024-02-16T10:56:34;18.70;80.60
40816;DHT22;26535;48.788;9.214;2024-02-16T10:59:05;18.70;80.40
40816;DHT22;26535;48.788;9.214;2024-02-16T11:01:42;18.80;80.00
40816;DHT22;26535;48.788;9.214;2024-02-16T11:04:13;18.80;79.80
40816;DHT22;26535;48.788;9.214;2024-02-16T11:06:57;19.00;79.80
40816;DHT22;26535;48.788;9.214;2024-02-16T11:09:35;19.10;79.10
40816;DHT22;26535;48.788;9.214;2024-02-16T11:12:02;19.20;78.90
40816;DHT22;26535;48.788;9.214;2024-02-16T11:14:48;19.30;78.60
40816;DHT22;26535;48.788;9.214;2024-02-16T11:17:22;19.40;78.10
40816;DHT22;26535;48.788;9.214;2024-02-16T11:19:49;19.50;78.00
40816;DHT22;26535;48.788;9.214;2024-02-16T11:22:17;19.50;77.90
40816;DHT22;26535;48.788;9.214;2024-02-16T11:24:51;19.60;78.00
40816;DHT22;26535;48.788;9.214;2024-02-16T11:27:23;19.50;77.50
40816;DHT22;26535;48.788;9.214;2024-02-16T11:29:52;19.50;77.40
40816;DHT22;26535;48.788;9.214;2024-02-16T11:32:18;19.50;77.30
40816;DHT22;26535;48.788;9.214;2024-02-16T11:39:12;19.50;77.10
40816;DHT22;26535;48.788;9.214;2024-02-16T11:41:41;19.60;76.50
40816;DHT22;26535;48.788;9.214;2024-02-16T11:44:07;19.60;76.50
40816;DHT22;26535;48.788;9.214;2024-02-16T11:46:33;19.60;76.10
40816;DHT22;26535;48.788;9.214;2024-02-16T11:49:07;19.70;76.20
40816;DHT22;26535;48.788;9.214;2024-02-16T11:51:33;19.90;75.30
40816;DHT22;26535;48.788;9.214;2024-02-16T11:53:59;20.10;75.00
40816;DHT22;26535;48.788;9.214;2024-02-16T11:56:25;20.40;73.80
40816;DHT22;26535;48.788;9.214;2024-02-16T11:58:52;20.60;73.30
40816;DHT22;26535;48.788;9.214;2024-02-16T12:01:18;20.90;72.40
40816;DHT22;26535;48.788;9.214;2024-02-16T12:03:44;21.10;71.70
40816;DHT22;26535;48.788;9.214;2024-02-16T12:06:20;21.60;70.80
40816;DHT22;26535;48.788;9.214;2024-02-16T12:08:46;22.00;69.30
40816;DHT22;26535;48.788;9.214;2024-02-16T12:11:12;22.10;68.60
40816;DHT22;26535;48.788;9.214;2024-02-16T12:13:39;22.40;68.60
40816;DHT22;26535;48.788;9.214;2024-02-16T12:16:05;22.50;68.40
40816;DHT22;26535;48.788;9.214;2024-02-16T12:18:32;22.50;68.30
40816;DHT22;26535;48.788;9.214;2024-02-16T12:21:03;22.70;68.40
40816;DHT22;26535;48.788;9.214;2024-02-16T12:23:29;22.60;67.70
40816;DHT22;26535;48.788;9.214;2024-02-16T12:25:56;22.80;68.00
40816;DHT22;26535;48.788;9.214;2024-02-16T12:28:26;23.10;67.70
40816;DHT22;26535;48.788;9.214;2024-02-16T12:30:57;23.20;67.00
40816;DHT22;26535;48.788;9.214;2024-02-16T12:33:23;23.40;66.50
40816;DHT22;26535;48.788;9.214;2024-02-16T12:35:49;23.10;67.00
40816;DHT22;26535;48.788;9.214;2024-02-16T12:38:15;22.80;67.90
40816;DHT22;26535;48.788;9.214;2024-02-16T12:40:46;22.60;69.00
40816;DHT22;26535;48.788;9.214;2024-02-16T12:43:12;22.40;69.00
40816;DHT22;26535;48.788;9.214;2024-02-16T12:45:39;22.10;69.20
40816;DHT22;26535;48.788;9.214;2024-02-16T12:48:05;21.80;70.00
40816;DHT22;26535;48.788;9.214;2024-02-16T12:50:32;21.70;70.60
40816;DHT22;26535;48.788;9.214;2024-02-16T12:52:58;21.50;70.90
40816;DHT22;26535;48.788;9.214;2024-02-16T12:55:24;21.30;71.10
40816;DHT22;26535;48.788;9.214;2024-02-16T12:57:50;21.10;71.70
40816;DHT22;26535;48.788;9.214;2024-02-16T13:00:17;21.10;71.70
40816;DHT22;26535;48.788;9.214;2024-02-16T13:02:42;21.00;72.20
40816;DHT22;26535;48.788;9.214;2024-02-16T13:05:08;20.80;73.00
40816;DHT22;26535;48.788;9.214;2024-02-16T13:07:34;20.70;73.80
40816;DHT22;26535;48.788;9.214;2024-02-16T13:10:00;20.50;74.80
40816;DHT22;26535;48.788;9.214;2024-02-16T13:12:25;20.50;75.30
40816;DHT22;26535;48.788;9.214;2024-02-16T13:14:52;20.40;75.60
40816;DHT22;26535;48.788;9.214;2024-02-16T13:17:18;20.40;76.00
40816;DHT22;26535;48.788;9.214;2024-02-16T13:19:44;20.40;76.50
40816;DHT22;26535;48.788;9.214;2024-02-16T13:22:10;20.50;76.90
40816;DHT22;26535;48.788;9.214;2024-02-16T13:24:35;20.50;76.50
40816;DHT22;26535;48.788;9.214;2024-02-16T13:27:01;20.40;76.70
40816;DHT22;26535;48.788;9.214;2024-02-16T13:29:27;20.40;76.80
40816;DHT22;26535;48.788;9.214;2024-02-16T13:31:53;20.40;77.10
40816;DHT22;26535;48.788;9.214;2024-02-16T13:34:18;20.40;77.60
40816;DHT22;26535;48.788;9.214;2024-02-16T13:36:46;20.50;77.50
40816;DHT22;26535;48.788;9.214;2024-02-16T13:39:12;20.40;77.70
40816;DHT22;26535;48.788;9.214;2024-02-16T13:41:39;20.40;77.80
40816;DHT22;26535;48.788;9.214;2024-02-16T13:44:05;20.40;78.30
40816;DHT22;26535;48.788;9.214;2024-02-16T13:46:31;20.20;78.50
40816;DHT22;26535;48.788;9.214;2024-02-16T13:48:57;20.20;78.50
40816;DHT22;26535;48.788;9.214;2024-02-16T13:51:24;20.20;78.60
40816;DHT22;26535;48.788;9.214;2024-02-16T13:53:50;20.10;79.30
40816;DHT22;26535;48.788;9.214;2024-02-16T13:56:17;20.10;80.80
40816;DHT22;26535;48.788;9.214;2024-02-16T13:58:42;20.10;79.40
40816;DHT22;26535;48.788;9.214;2024-02-16T14:01:11;20.00;79.60
40816;DHT22;26535;48.788;9.214;2024-02-16T14:03:37;19.90;79.90
40816;DHT22;26535;48.788;9.214;2024-02-16T14:06:02;19.90;80.20
40816;DHT22;26535;48.788;9.214;2024-02-16T14:08:29;19.80;82.30
40816;DHT22;26535;48.788;9.214;2024-02-16T14:10:56;19.70;81.90
40816;DHT22;26535;48.788;9.214;2024-02-16T14:13:22;19.60;81.10
40816;DHT22;26535;48.788;9.214;2024-02-16T14:15:50;19.50;82.00
40816;DHT22;26535;48.788;9.214;2024-02-16T14:18:16;19.40;85.30
40816;DHT22;26535;48.788;9.214;2024-02-16T14:20:41;19.30;85.40
40816;DHT22;26535;48.788;9.214;2024-02-16T14:23:07;19.30;84.50
40816;DHT22;26535;48.788;9.214;2024-02-16T14:25:33;19.30;83.60
40816;DHT22;26535;48.788;9.214;2024-02-16T14:28:00;19.20;83.70
40816;DHT22;26535;48.788;9.214;2024-02-16T14:30:26;19.10;83.00
40816;DHT22;26535;48.788;9.214;2024-02-16T14:32:51;19.10;84.20
40816;DHT22;26535;48.788;9.214;2024-02-16T14:35:17;19.10;83.60
40816;DHT22;26535;48.788;9.214;2024-02-16T14:37:43;19.00;84.60
40816;DHT22;26535;48.788;9.214;2024-02-16T14:40:09;19.00;83.20
40816;DHT22;26535;48.788;9.214;2024-02-16T14:42:38;18.90;86.30
40816;DHT22;26535;48.788;9.214;2024-02-16T14:45:05;18.90;87.40
40816;DHT22;26535;48.788;9.214;2024-02-16T14:47:35;18.90;84.30
40816;DHT22;26535;48.788;9.214;2024-02-16T14:50:02;18.90;86.00
40816;DHT22;26535;48.788;9.214;2024-02-16T14:52:29;18.90;88.40
40816;DHT22;26535;48.788;9.214;2024-02-16T14:54:55;18.90;85.40
40816;DHT22;26535;48.788;9.214;2024-02-16T14:57:22;18.70;85.80
40816;DHT22;26535;48.788;9.214;2024-02-16T14:59:53;18.60;85.60
40816;DHT22;26535;48.788;9.214;2024-02-16T15:02:22;18.60;87.00
40816;DHT22;26535;48.788;9.214;2024-02-16T15:04:48;18.50;86.30
40816;DHT22;26535;48.788;9.214;2024-02-16T15:07:14;18.40;86.10
40816;DHT22;26535;48.788;9.214;2024-02-16T15:09:39;18.30;85.90
40816;DHT22;26535;48.788;9.214;2024-02-16T15:12:08;18.20;86.00
40816;DHT22;26535;48.788;9.214;2024-02-16T15:14:37;18.10;86.40
40816;DHT22;26535;48.788;9.214;2024-02-16T15:17:02;18.10;87.60
40816;DHT22;26535;48.788;9.214;2024-02-16T15:19:33;18.20;86.70
40816;DHT22;26535;48.788;9.214;2024-02-16T15:21:59;18.20;86.80
40816;DHT22;26535;48.788;9.214;2024-02-16T15:24:24;18.30;86.80
40816;DHT22;26535;48.788;9.214;2024-02-16T15:30:30;18.20;87.30
40816;DHT22;26535;48.788;9.214;2024-02-16T15:33:21;18.30;87.70
40816;DHT22;26535;48.788;9.214;2024-02-16T15:35:47;18.20;87.70
40816;DHT22;26535;48.788;9.214;2024-02-16T15:38:12;18.10;87.90
40816;DHT22;26535;48.788;9.214;2024-02-16T15:40:38;18.00;88.60
40816;DHT22;26535;48.788;9.214;2024-02-16T15:43:04;18.00;88.60
40816;DHT22;26535;48.788;9.214;2024-02-16T15:45:31;17.90;89.10
40816;DHT22;26535;48.788;9.214;2024-02-16T15:48:00;17.90;89.70
40816;DHT22;26535;48.788;9.214;2024-02-16T15:50:26;17.80;89.90
40816;DHT22;26535;48.788;9.214;2024-02-16T15:52:52;17.80;90.00
40816;DHT22;26535;48.788;9.214;2024-02-16T15:55:18;17.80;90.10
40816;DHT22;26535;48.788;9.214;2024-02-16T15:57:44;17.70;90.20
40816;DHT22;26535;48.788;9.214;2024-02-16T16:00:11;17.60;90.10
40816;DHT22;26535;48.788;9.214;2024-02-16T16:02:37;17.60;90.40
40816;DHT22;26535;48.788;9.214;2024-02-16T16:05:03;17.50;90.50
40816;DHT22;26535;48.788;9.214;2024-02-16T16:07:29;17.40;90.70
40816;DHT22;26535;48.788;9.214;2024-02-16T16:09:55;17.30;90.70
40816;DHT22;26535;48.788;9.214;2024-02-16T16:12:21;17.20;90.90
40816;DHT22;26535;48.788;9.214;2024-02-16T16:14:47;17.10;91.10
40816;DHT22;26535;48.788;9.214;2024-02-16T16:17:17;17.10;91.30
40816;DHT22;26535;48.788;9.214;2024-02-16T16:19:43;17.00;91.40
40816;DHT22;26535;48.788;9.214;2024-02-16T16:22:09;16.90;91.30
40816;DHT22;26535;48.788;9.214;2024-02-16T16:24:40;16.80;91.60
40816;DHT22;26535;48.788;9.214;2024-02-16T16:27:08;16.80;91.60
40816;DHT22;26535;48.788;9.214;2024-02-16T16:30:10;16.80;91.70
40816;DHT22;26535;48.788;9.214;2024-02-16T16:32:36;16.70;91.80
40816;DHT22;26535;48.788;9.214;2024-02-16T16:35:01;16.70;91.90
40816;DHT22;26535;48.788;9.214;2024-02-16T16:37:30;16.60;92.10
40816;DHT22;26535;48.788;9.214;2024-02-16T16:39:56;16.60;92.20
40816;DHT22;26535;48.788;9.214;2024-02-16T16:42:21;16.50;92.30
40816;DHT22;26535;48.788;9.214;2024-02-16T16:44:52;16.50;92.40
40816;DHT22;26535;48.788;9.214;2024-02-16T16:47:18;16.50;92.40
40816;DHT22;26535;48.788;9.214;2024-02-16T16:49:43;16.40;92.50
40816;DHT22;26535;48.788;9.214;2024-02-16T16:52:46;16.40;92.60
40816;DHT22;26535;48.788;9.214;2024-02-16T16:55:11;16.30;92.80
40816;DHT22;26535;48.788;9.214;2024-02-16T16:57:37;16.30;92.90
40816;DHT22;26535;48.788;9.214;2024-02-16T17:03:29;16.20;93.10
40816;DHT22;26535;48.788;9.214;2024-02-16T17:05:55;16.00;93.30
40816;DHT22;26535;48.788;9.214;2024-02-16T17:08:21;16.00;93.40
40816;DHT22;26535;48.788;9.214;2024-02-16T17:10:46;15.90;93.50
40816;DHT22;26535;48.788;9.214;2024-02-16T17:13:12;15.90;93.70
40816;DHT22;26535;48.788;9.214;2024-02-16T17:15:53;15.80;93.80
40816;DHT22;26535;48.788;9.214;2024-02-16T17:18:47;15.80;93.90
40816;DHT22;26535;48.788;9.214;2024-02-16T17:21:14;15.70;94.10
40816;DHT22;26535;48.788;9.214;2024-02-16T17:23:40;15.60;94.20
40816;DHT22;26535;48.788;9.214;2024-02-16T17:26:11;15.50;94.30
40816;DHT22;26535;48.788;9.214;2024-02-16T17:28:37;15.50;94.50
40816;DHT22;26535;48.788;9.214;2024-02-16T17:31:03;15.50;94.70
40816;DHT22;26535;48.788;9.214;2024-02-16T17:33:29;15.50;94.70
40816;DHT22;26535;48.788;9.214;2024-02-16T17:35:54;15.40;94.90
40816;DHT22;26535;48.788;9.214;2024-02-16T17:38:20;15.40;95.00
40816;DHT22;26535;48.788;9.214;2024-02-16T17:41:11;15.30;95.50
40816;DHT22;26535;48.788;9.214;2024-02-16T17:43:36;15.30;96.20
40816;DHT22;26535;48.788;9.214;2024-02-16T17:46:04;15.30;96.80
40816;DHT22;26535;48.788;9.214;2024-02-16T17:48:31;15.20;97.40
40816;DHT22;26535;48.788;9.214;2024-02-16T17:50:57;15.10;97.50
40816;DHT22;26535;48.788;9.214;2024-02-16T17:53:23;15.00;97.80
40816;DHT22;26535;48.788;9.214;2024-02-16T17:55:49;14.90;98.60
40816;DHT22;26535;48.788;9.214;2024-02-16T17:58:15;14.80;99.00
40816;DHT22;26535;48.788;9.214;2024-02-16T18:00:44;14.70;99.60
40816;DHT22;26535;48.788;9.214;2024-02-16T18:03:09;14.60;99.90
40816;DHT22;26535;48.788;9.214;2024-02-16T18:05:35;14.60;99.90
40816;DHT22;26535;48.788;9.214;2024-02-16T18:08:01;14.50;99.90
40816;DHT22;26535;48.788;9.214;2024-02-16T18:10:27;14.50;99.90
40816;DHT22;26535;48.788;9.214;2024-02-16T18:12:52;14.50;99.90
40816;DHT22;26535;48.788;9.214;2024-02-16T18:15:18;14.40;99.90
40816;DHT22;26535;48.788;9.214;2024-02-16T18:17:44;14.40;99.90
40816;DHT22;26535;48.788;9.214;2024-02-16T18:20:10;14.40;99.90
40816;DHT22;26535;48.788;9.214;2024-02-16T18:22:36;14.40;99.90
40816;DHT22;26535;48.788;9.214;2024-02-16T18:25:02;14.40;99.90
40816;DHT22;26535;48.788;9.214;2024-02-16T18:27:29;14.30;99.90
40816;DHT22;26535;48.788;9.214;2024-02-16T18:29:54;14.30;99.90
40816;DHT22;26535;48.788;9.214;2024-02-16T18:32:20;14.20;99.90
40816;DHT22;26535;48.788;9.214;2024-02-16T18:34:46;14.20;99.90
40816;DHT22;26535;48.788;9.214;2024-02-16T18:37:12;14.20;99.90
40816;DHT22;26535;48.788;9.214;2024-02-16T18:39:37;14.20;99.90
40816;DHT22;26535;48.788;9.214;2024-02-16T18:42:05;14.20;99.90
40816;DHT22;26535;48.788;9.214;2024-02-16T18:44:31;14.20;99.90
40816;DHT22;26535;48.788;9.214;2024-02-16T18:46:58;14.10;99.90
40816;DHT22;26535;48.788;9.214;2024-02-16T18:49:24;14.10;99.90
40816;DHT22;26535;48.788;9.214;2024-02-16T18:51:50;14.10;99.90
40816;DHT22;26535;48.788;9.214;2024-02-16T18:54:16;14.10;99.90
40816;DHT22;26535;48.788;9.214;2024-02-16T18:56:41;14.00;99.90
40816;DHT22;26535;48.788;9.214;2024-02-16T18:59:07;14.00;99.90
40816;DHT22;26535;48.788;9.214;2024-02-16T19:01:33;14.00;99.90
40816;DHT22;26535;48.788;9.214;2024-02-16T19:04:00;14.00;99.90
40816;DHT22;26535;48.788;9.214;2024-02-16T19:06:29;14.00;99.90
40816;DHT22;26535;48.788;9.214;2024-02-16T19:08:55;13.90;99.90
40816;DHT22;26535;48.788;9.214;2024-02-16T19:11:20;14.00;99.90
40816;DHT22;26535;48.788;9.214;2024-02-16T19:13:46;14.00;99.90
40816;DHT22;26535;48.788;9.214;2024-02-16T19:16:12;13.90;99.90
40816;DHT22;26535;48.788;9.214;2024-02-16T19:18:37;13.90;99.90
40816;DHT22;26535;48.788;9.214;2024-02-16T19:21:03;13.90;99.90
40816;DHT22;26535;48.788;9.214;2024-02-16T19:23:29;13.90;99.90
40816;DHT22;26535;48.788;9.214;2024-02-16T19:25:56;13.80;99.90
40816;DHT22;26535;48.788;9.214;2024-02-16T19:28:21;13.80;99.90
40816;DHT22;26535;48.788;9.214;2024-02-16T19:30:47;13.80;99.90
40816;DHT22;26535;48.788;9.214;2024-02-16T19:33:13;13.70;99.90
40816;DHT22;26535;48.788;9.214;2024-02-16T19:35:38;13.70;99.90
40816;DHT22;26535;48.788;9.214;2024-02-16T19:38:04;13.70;99.90
40816;DHT22;26535;48.788;9.214;2024-02-16T19:40:32;13.70;99.90
40816;DHT22;26535;48.788;9.214;2024-02-16T19:42:59;13.70;99.90
40816;DHT22;26535;48.788;9.214;2024-02-16T19:45:24;13.70;99.90
40816;DHT22;26535;48.788;9.214;2024-02-16T19:47:50;13.70;99.90
40816;DHT22;26535;48.788;9.214;2024-02-16T19:50:16;13.70;99.90
40816;DHT22;26535;48.788;9.214;2024-02-16T19:52:44;13.70;99.90
40816;DHT22;26535;48.788;9.214;2024-02-16T19:55:10;13.60;99.90
40816;DHT22;26535;48.788;9.214;2024-02-16T19:57:36;13.60;99.90
40816;DHT22;26535;48.788;9.214;2024-02-16T20:00:03;13.60;99.90
40816;DHT22;26535;48.788;9.214;2024-02-16T20:02:32;13.60;99.90
40816;DHT22;26535;48.788;9.214;2024-02-16T20:04:58;13.60;99.90
40816;DHT22;26535;48.788;9.214;2024-02-16T20:07:24;13.60;99.90
40816;DHT22;26535;48.788;9.214;2024-02-16T20:09:52;13.60;99.90
40816;DHT22;26535;48.788;9.214;2024-02-16T20:12:19;13.60;99.90
40816;DHT22;26535;48.788;9.214;2024-02-16T20:14:45;13.60;99.90
40816;DHT22;26535;48.788;9.214;2024-02-16T20:17:11;13.50;99.90
40816;DHT22;26535;48.788;9.214;2024-02-16T20:19:39;13.50;99.90
40816;DHT22;26535;48.788;9.214;2024-02-16T20:22:04;13.50;99.90
40816;DHT22;26535;48.788;9.214;2024-02-16T20:24:30;13.50;99.90
40816;DHT22;26535;48.788;9.214;2024-02-16T20:26:56;13.50;99.90
40816;DHT22;26535;48.788;9.214;2024-02-16T20:29:21;13.50;99.90
40816;DHT22;26535;48.788;9.214;2024-02-16T20:31:52;13.50;99.90
40816;DHT22;26535;48.788;9.214;2024-02-16T20:34:17;13.40;99.90
40816;DHT22;26535;48.788;9.214;2024-02-16T20:36:43;13.40;99.90
40816;DHT22;26535;48.788;9.214;2024-02-16T20:39:11;13.40;99.90
40816;DHT22;26535;48.788;9.214;2024-02-16T20:41:37;13.40;99.90
40816;DHT22;26535;48.788;9.214;2024-02-16T20:44:03;13.40;99.90
40816;DHT22;26535;48.788;9.214;2024-02-16T20:46:29;13.40;99.90
40816;DHT22;26535;48.788;9.214;2024-02-16T20:48:54;13.40;99.90
40816;DHT22;26535;48.788;9.214;2024-02-16T20:51:23;13.40;99.90
40816;DHT22;26535;48.788;9.214;2024-02-16T20:53:49;13.30;99.90
40816;DHT22;26535;48.788;9.214;2024-02-16T20:56:14;13.40;99.90
40816;DHT22;26535;48.788;9.214;2024-02-16T20:58:43;13.40;99.90
40816;DHT22;26535;48.788;9.214;2024-02-16T21:01:11;13.40;99.90
40816;DHT22;26535;48.788;9.214;2024-02-16T21:03:37;13.40;99.90
40816;DHT22;26535;48.788;9.214;2024-02-16T21:06:04;13.30;99.90
40816;DHT22;26535;48.788;9.214;2024-02-16T21:08:30;13.30;99.90
40816;DHT22;26535;48.788;9.214;2024-02-16T21:10:56;13.20;99.90
40816;DHT22;26535;48.788;9.214;2024-02-16T21:13:22;13.20;99.90
40816;DHT22;26535;48.788;9.214;2024-02-16T21:15:47;13.20;99.90
40816;DHT22;26535;48.788;9.214;2024-02-16T21:18:13;13.20;99.90
40816;DHT22;26535;48.788;9.214;2024-02-16T21:20:40;13.10;99.90
40816;DHT22;26535;48.788;9.214;2024-02-16T21:23:07;13.10;99.90
40816;DHT22;26535;48.788;9.214;2024-02-16T21:25:33;13.10;99.90